| Date | Time | Temp. (oF) | Dew Point (oF) | Rel. Hum. (%) | Press. (in.) | Wind Dir. | Wind Speed (mph) | Hourly Rainfall (in.) |
|
|---|---|---|---|---|---|---|---|---|---|
| 1 | 08/14 | 00:00 | 67 | 67 | 100 | 29.99 | NE | 1 | 0.00 |
| 2 | 08/13 | 23:00 | 68 | 66 | 94 | 30.00 | SSW | 0 | 0.00 |
| 3 | 08/13 | 22:00 | 70 | 67 | 92 | 30.00 | ESE | 0 | 0.00 |
| 4 | 08/13 | 21:00 | 74 | 65 | 75 | 29.99 | SSW | 0 | 0.00 |
| 5 | 08/13 | 20:00 | 79 | 63 | 60 | 29.99 | SSW | 0 | 0.00 |
| 6 | 08/13 | 19:00 | 81 | 61 | 52 | 29.96 | S | 0 | 0.00 |
| 7 | 08/13 | 18:00 | 83 | 61 | 49 | 29.97 | WSW | 4 | 0.00 |
| 8 | 08/13 | 17:00 | 84 | 62 | 48 | 29.97 | SW | 5 | 0.00 |
| 9 | 08/13 | 16:00 | 85 | 61 | 45 | 29.98 | W | 3 | 0.00 |
| 10 | 08/13 | 15:00 | 84 | 60 | 46 | 30.00 | WSW | 3 | 0.00 |
| 11 | 08/13 | 14:00 | 84 | 64 | 53 | 30.01 | SW | 4 | 0.00 |
| 12 | 08/13 | 13:00 | 83 | 65 | 56 | 30.02 | W | 3 | 0.00 |
| 13 | 08/13 | 12:00 | 80 | 64 | 60 | 30.05 | WSW | 3 | 0.00 |
| 14 | 08/13 | 11:00 | 78 | 64 | 64 | 30.07 | E | 3 | 0.00 |
| 15 | 08/13 | 10:00 | 76 | 67 | 74 | 30.08 | WNW | 1 | 0.00 |
| 16 | 08/13 | 09:00 | 72 | 68 | 88 | 30.08 | WSW | 4 | 0.00 |
| 17 | 08/13 | 08:00 | 64 | 63 | 100 | 30.08 | SW | 0 | 0.00 |
| 18 | 08/13 | 07:00 | 61 | 60 | 100 | 30.07 | SW | 0 | 0.00 |
| 19 | 08/13 | 06:00 | 61 | 60 | 100 | 30.06 | SW | 0 | 0.00 |
| 20 | 08/13 | 05:00 | 62 | 62 | 100 | 30.04 | SW | 0 | 0.00 |
| 21 | 08/13 | 04:00 | 62 | 62 | 100 | 30.03 | SW | 0 | 0.00 |
| 22 | 08/13 | 03:00 | 63 | 63 | 100 | 30.03 | SW | 0 | 0.00 |
| 23 | 08/13 | 02:00 | 64 | 63 | 100 | 30.03 | SW | 0 | 0.00 |
| 24 | 08/13 | 01:00 | 65 | 64 | 99 | 30.03 | W | 0 | 0.00 |